sensor_id;sensor_type;location;lat;lon;timestamp;temperature;humidity
13970;DHT22;7057;49.984;8.404;2022-12-18T00:02:24;-5.00;99.90
13970;DHT22;7057;49.984;8.404;2022-12-18T00:04:51;-5.20;99.90
13970;DHT22;7057;49.984;8.404;2022-12-18T00:07:19;-5.50;99.90
13970;DHT22;7057;49.984;8.404;2022-12-18T00:09:46;-5.50;99.90
13970;DHT22;7057;49.984;8.404;2022-12-18T00:12:13;-5.40;99.90
13970;DHT22;7057;49.984;8.404;2022-12-18T00:14:40;-5.50;99.90
13970;DHT22;7057;49.984;8.404;2022-12-18T00:17:11;-5.40;99.90
13970;DHT22;7057;49.984;8.404;2022-12-18T00:19:39;-5.30;99.90
13970;DHT22;7057;49.984;8.404;2022-12-18T00:22:06;-5.30;99.90
13970;DHT22;7057;49.984;8.404;2022-12-18T00:24:34;-5.30;99.90
13970;DHT22;7057;49.984;8.404;2022-12-18T00:27:01;-5.20;99.90
13970;DHT22;7057;49.984;8.404;2022-12-18T00:29:28;-5.30;99.90
13970;DHT22;7057;49.984;8.404;2022-12-18T00:31:55;-5.40;99.90
13970;DHT22;7057;49.984;8.404;2022-12-18T00:34:22;-5.60;99.90
13970;DHT22;7057;49.984;8.404;2022-12-18T00:36:51;-5.60;99.90
13970;DHT22;7057;49.984;8.404;2022-12-18T00:39:18;-5.60;99.90
13970;DHT22;7057;49.984;8.404;2022-12-18T00:41:45;-5.70;99.90
13970;DHT22;7057;49.984;8.404;2022-12-18T00:44:30;-5.80;99.90
13970;DHT22;7057;49.984;8.404;2022-12-18T00:46:57;-5.80;99.90
13970;DHT22;7057;49.984;8.404;2022-12-18T00:49:25;-5.80;99.90
13970;DHT22;7057;49.984;8.404;2022-12-18T00:51:57;-5.80;99.90
13970;DHT22;7057;49.984;8.404;2022-12-18T00:54:24;-6.00;99.90
13970;DHT22;7057;49.984;8.404;2022-12-18T00:56:51;-6.10;99.90
13970;DHT22;7057;49.984;8.404;2022-12-18T00:59:19;-6.00;99.90
13970;DHT22;7057;49.984;8.404;2022-12-18T01:01:47;-5.90;99.90
13970;DHT22;7057;49.984;8.404;2022-12-18T01:04:14;-5.90;99.90
13970;DHT22;7057;49.984;8.404;2022-12-18T01:06:41;-5.80;99.90
13970;DHT22;7057;49.984;8.404;2022-12-18T01:09:11;-5.80;99.90
13970;DHT22;7057;49.984;8.404;2022-12-18T01:11:38;-5.80;99.90
13970;DHT22;7057;49.984;8.404;2022-12-18T01:14:05;-5.90;99.90
13970;DHT22;7057;49.984;8.404;2022-12-18T01:16:33;-5.90;99.90
13970;DHT22;7057;49.984;8.404;2022-12-18T01:19:00;-5.90;99.90
13970;DHT22;7057;49.984;8.404;2022-12-18T01:21:27;-6.00;99.90
13970;DHT22;7057;49.984;8.404;2022-12-18T01:23:55;-5.90;99.90
13970;DHT22;7057;49.984;8.404;2022-12-18T01:26:26;-5.90;99.90
13970;DHT22;7057;49.984;8.404;2022-12-18T01:28:56;-6.00;99.90
13970;DHT22;7057;49.984;8.404;2022-12-18T01:31:24;-6.10;99.90
13970;DHT22;7057;49.984;8.404;2022-12-18T01:33:52;-6.00;99.90
13970;DHT22;7057;49.984;8.404;2022-12-18T01:36:21;-6.00;99.90
13970;DHT22;7057;49.984;8.404;2022-12-18T01:38:49;-6.10;99.90
13970;DHT22;7057;49.984;8.404;2022-12-18T01:41:20;-6.10;99.90
13970;DHT22;7057;49.984;8.404;2022-12-18T01:43:54;-6.00;99.90
13970;DHT22;7057;49.984;8.404;2022-12-18T01:46:23;-5.80;99.90
13970;DHT22;7057;49.984;8.404;2022-12-18T01:48:55;-5.80;99.90
13970;DHT22;7057;49.984;8.404;2022-12-18T01:51:23;-5.80;99.90
13970;DHT22;7057;49.984;8.404;2022-12-18T01:53:50;-5.80;99.90
13970;DHT22;7057;49.984;8.404;2022-12-18T01:56:19;-5.80;99.90
13970;DHT22;7057;49.984;8.404;2022-12-18T01:58:54;-5.80;99.90
13970;DHT22;7057;49.984;8.404;2022-12-18T02:01:23;-5.70;99.90
13970;DHT22;7057;49.984;8.404;2022-12-18T02:03:51;-5.90;99.90
13970;DHT22;7057;49.984;8.404;2022-12-18T02:06:21;-5.90;99.90
13970;DHT22;7057;49.984;8.404;2022-12-18T02:08:58;-6.10;99.90
13970;DHT22;7057;49.984;8.404;2022-12-18T02:11:37;-6.20;99.90
13970;DHT22;7057;49.984;8.404;2022-12-18T02:14:16;-6.30;99.90
13970;DHT22;7057;49.984;8.404;2022-12-18T02:16:50;-6.40;99.90
13970;DHT22;7057;49.984;8.404;2022-12-18T02:19:37;-5.50;99.90
13970;DHT22;7057;49.984;8.404;2022-12-18T02:22:17;-6.40;99.90
13970;DHT22;7057;49.984;8.404;2022-12-18T02:25:00;-6.40;99.90
13970;DHT22;7057;49.984;8.404;2022-12-18T02:27:32;-6.30;99.90
13970;DHT22;7057;49.984;8.404;2022-12-18T02:30:02;-6.20;99.90
13970;DHT22;7057;49.984;8.404;2022-12-18T02:32:32;-6.30;99.90
13970;DHT22;7057;49.984;8.404;2022-12-18T02:35:03;-5.50;99.90
13970;DHT22;7057;49.984;8.404;2022-12-18T02:37:32;-6.20;99.90
13970;DHT22;7057;49.984;8.404;2022-12-18T02:40:02;-6.10;99.90
13970;DHT22;7057;49.984;8.404;2022-12-18T02:42:32;-6.10;99.90
13970;DHT22;7057;49.984;8.404;2022-12-18T02:44:59;-6.10;99.90
13970;DHT22;7057;49.984;8.404;2022-12-18T02:47:30;-6.20;99.90
13970;DHT22;7057;49.984;8.404;2022-12-18T02:50:05;-6.30;99.90
13970;DHT22;7057;49.984;8.404;2022-12-18T02:52:39;-6.20;99.90
13970;DHT22;7057;49.984;8.404;2022-12-18T02:55:19;-6.60;99.90
13970;DHT22;7057;49.984;8.404;2022-12-18T02:57:53;-6.00;99.90
13970;DHT22;7057;49.984;8.404;2022-12-18T03:00:24;-6.60;99.90
13970;DHT22;7057;49.984;8.404;2022-12-18T03:02:56;-6.20;99.90
13970;DHT22;7057;49.984;8.404;2022-12-18T03:05:31;-6.00;99.90
13970;DHT22;7057;49.984;8.404;2022-12-18T03:08:05;-5.90;99.90
13970;DHT22;7057;49.984;8.404;2022-12-18T03:10:37;-6.00;99.90
13970;DHT22;7057;49.984;8.404;2022-12-18T03:13:10;-5.90;99.90
13970;DHT22;7057;49.984;8.404;2022-12-18T03:15:41;-5.90;99.90
13970;DHT22;7057;49.984;8.404;2022-12-18T03:18:16;-5.80;99.90
13970;DHT22;7057;49.984;8.404;2022-12-18T03:20:45;-5.90;99.90
13970;DHT22;7057;49.984;8.404;2022-12-18T03:23:17;-6.00;99.90
13970;DHT22;7057;49.984;8.404;2022-12-18T03:25:46;-6.20;99.90
13970;DHT22;7057;49.984;8.404;2022-12-18T03:28:20;-6.10;99.90
13970;DHT22;7057;49.984;8.404;2022-12-18T03:30:50;-6.20;99.90
13970;DHT22;7057;49.984;8.404;2022-12-18T03:33:24;-6.50;99.90
13970;DHT22;7057;49.984;8.404;2022-12-18T03:35:52;-6.70;99.90
13970;DHT22;7057;49.984;8.404;2022-12-18T03:38:20;-6.80;99.90
13970;DHT22;7057;49.984;8.404;2022-12-18T03:40:56;-6.70;99.90
13970;DHT22;7057;49.984;8.404;2022-12-18T03:43:35;-6.70;99.90
13970;DHT22;7057;49.984;8.404;2022-12-18T03:46:06;-6.50;99.90
13970;DHT22;7057;49.984;8.404;2022-12-18T03:48:40;-6.50;99.90
13970;DHT22;7057;49.984;8.404;2022-12-18T03:51:13;-6.40;99.90
13970;DHT22;7057;49.984;8.404;2022-12-18T03:53:46;-6.40;99.90
13970;DHT22;7057;49.984;8.404;2022-12-18T03:56:16;-6.40;99.90
13970;DHT22;7057;49.984;8.404;2022-12-18T03:58:46;-6.40;99.90
13970;DHT22;7057;49.984;8.404;2022-12-18T04:01:15;-6.50;99.90
13970;DHT22;7057;49.984;8.404;2022-12-18T04:03:44;-6.50;99.90
13970;DHT22;7057;49.984;8.404;2022-12-18T04:06:14;-6.50;99.90
13970;DHT22;7057;49.984;8.404;2022-12-18T04:08:42;-6.60;99.90
13970;DHT22;7057;49.984;8.404;2022-12-18T04:11:10;-6.50;99.90
13970;DHT22;7057;49.984;8.404;2022-12-18T04:13:38;-6.20;99.90
13970;DHT22;7057;49.984;8.404;2022-12-18T04:16:07;-6.30;99.90
13970;DHT22;7057;49.984;8.404;2022-12-18T04:18:35;-6.50;99.90
13970;DHT22;7057;49.984;8.404;2022-12-18T04:21:03;-6.50;99.90
13970;DHT22;7057;49.984;8.404;2022-12-18T04:23:30;-6.50;99.90
13970;DHT22;7057;49.984;8.404;2022-12-18T04:25:57;-6.40;99.90
13970;DHT22;7057;49.984;8.404;2022-12-18T04:28:24;-6.40;99.90
13970;DHT22;7057;49.984;8.404;2022-12-18T04:30:51;-6.30;99.90
13970;DHT22;7057;49.984;8.404;2022-12-18T04:33:20;-6.30;99.90
13970;DHT22;7057;49.984;8.404;2022-12-18T04:35:47;-6.20;99.90
13970;DHT22;7057;49.984;8.404;2022-12-18T04:38:14;-6.30;99.90
13970;DHT22;7057;49.984;8.404;2022-12-18T04:40:42;-6.00;99.90
13970;DHT22;7057;49.984;8.404;2022-12-18T04:43:10;-5.90;99.90
13970;DHT22;7057;49.984;8.404;2022-12-18T04:45:37;-5.90;99.90
13970;DHT22;7057;49.984;8.404;2022-12-18T04:48:04;-5.90;99.90
13970;DHT22;7057;49.984;8.404;2022-12-18T04:50:33;-5.90;99.90
13970;DHT22;7057;49.984;8.404;2022-12-18T04:53:00;-5.90;99.90
13970;DHT22;7057;49.984;8.404;2022-12-18T04:55:28;-5.90;99.90
13970;DHT22;7057;49.984;8.404;2022-12-18T04:57:55;-5.90;99.90
13970;DHT22;7057;49.984;8.404;2022-12-18T05:00:23;-6.00;99.90
13970;DHT22;7057;49.984;8.404;2022-12-18T05:02:50;-6.00;99.90
13970;DHT22;7057;49.984;8.404;2022-12-18T05:05:17;-5.90;99.90
13970;DHT22;7057;49.984;8.404;2022-12-18T05:07:46;-5.90;99.90
13970;DHT22;7057;49.984;8.404;2022-12-18T05:10:13;-6.00;99.90
13970;DHT22;7057;49.984;8.404;2022-12-18T05:12:40;-5.90;99.90
13970;DHT22;7057;49.984;8.404;2022-12-18T05:15:21;-5.60;99.90
13970;DHT22;7057;49.984;8.404;2022-12-18T05:17:48;-5.60;99.90
13970;DHT22;7057;49.984;8.404;2022-12-18T05:20:16;-5.60;99.90
13970;DHT22;7057;49.984;8.404;2022-12-18T05:22:45;-5.60;99.90
13970;DHT22;7057;49.984;8.404;2022-12-18T05:25:12;-5.60;99.90
13970;DHT22;7057;49.984;8.404;2022-12-18T05:27:40;-5.60;99.90
13970;DHT22;7057;49.984;8.404;2022-12-18T05:30:08;-5.70;99.90
13970;DHT22;7057;49.984;8.404;2022-12-18T05:32:35;-5.70;99.90
13970;DHT22;7057;49.984;8.404;2022-12-18T05:35:03;-5.60;99.90
13970;DHT22;7057;49.984;8.404;2022-12-18T05:37:31;-5.50;99.90
13970;DHT22;7057;49.984;8.404;2022-12-18T05:39:59;-5.40;99.90
13970;DHT22;7057;49.984;8.404;2022-12-18T05:42:26;-5.40;99.90
13970;DHT22;7057;49.984;8.404;2022-12-18T05:44:54;-5.50;99.90
13970;DHT22;7057;49.984;8.404;2022-12-18T05:47:21;-5.60;99.90
13970;DHT22;7057;49.984;8.404;2022-12-18T05:49:48;-5.60;99.90
13970;DHT22;7057;49.984;8.404;2022-12-18T05:52:15;-5.70;99.90
13970;DHT22;7057;49.984;8.404;2022-12-18T05:54:42;-5.60;99.90
13970;DHT22;7057;49.984;8.404;2022-12-18T05:57:11;-5.60;99.90
13970;DHT22;7057;49.984;8.404;2022-12-18T05:59:38;-5.60;99.90
13970;DHT22;7057;49.984;8.404;2022-12-18T06:02:05;-5.50;99.90
13970;DHT22;7057;49.984;8.404;2022-12-18T06:04:33;-5.50;99.90
13970;DHT22;7057;49.984;8.404;2022-12-18T06:07:05;-5.80;99.90
13970;DHT22;7057;49.984;8.404;2022-12-18T06:09:32;-5.90;99.90
13970;DHT22;7057;49.984;8.404;2022-12-18T06:11:59;-6.00;99.90
13970;DHT22;7057;49.984;8.404;2022-12-18T06:14:28;-5.70;99.90
13970;DHT22;7057;49.984;8.404;2022-12-18T06:16:55;-5.60;99.90
13970;DHT22;7057;49.984;8.404;2022-12-18T06:19:22;-5.60;99.90
13970;DHT22;7057;49.984;8.404;2022-12-18T06:21:50;-5.60;99.90
13970;DHT22;7057;49.984;8.404;2022-12-18T06:24:17;-5.60;99.90
13970;DHT22;7057;49.984;8.404;2022-12-18T06:26:44;-5.50;99.90
13970;DHT22;7057;49.984;8.404;2022-12-18T06:29:11;-5.40;99.90
13970;DHT22;7057;49.984;8.404;2022-12-18T06:31:40;-5.40;99.90
13970;DHT22;7057;49.984;8.404;2022-12-18T06:34:07;-5.40;99.90
13970;DHT22;7057;49.984;8.404;2022-12-18T06:36:34;-5.30;99.90
13970;DHT22;7057;49.984;8.404;2022-12-18T06:39:01;-5.30;99.90
13970;DHT22;7057;49.984;8.404;2022-12-18T06:41:29;-5.20;99.90
13970;DHT22;7057;49.984;8.404;2022-12-18T06:43:57;-5.20;99.90
13970;DHT22;7057;49.984;8.404;2022-12-18T06:46:24;-5.20;99.90
13970;DHT22;7057;49.984;8.404;2022-12-18T06:48:53;-5.40;99.90
13970;DHT22;7057;49.984;8.404;2022-12-18T06:51:21;-5.80;99.90
13970;DHT22;7057;49.984;8.404;2022-12-18T06:53:49;-6.30;99.90
13970;DHT22;7057;49.984;8.404;2022-12-18T06:56:16;-6.50;99.90
13970;DHT22;7057;49.984;8.404;2022-12-18T06:58:44;-6.60;99.90
13970;DHT22;7057;49.984;8.404;2022-12-18T07:01:12;-6.60;99.90
13970;DHT22;7057;49.984;8.404;2022-12-18T07:03:42;-6.70;99.90
13970;DHT22;7057;49.984;8.404;2022-12-18T07:06:16;-6.70;99.90
13970;DHT22;7057;49.984;8.404;2022-12-18T07:08:43;-6.80;99.90
13970;DHT22;7057;49.984;8.404;2022-12-18T07:11:11;-6.70;99.90
13970;DHT22;7057;49.984;8.404;2022-12-18T07:13:38;-6.70;99.90
13970;DHT22;7057;49.984;8.404;2022-12-18T07:16:07;-6.70;99.90
13970;DHT22;7057;49.984;8.404;2022-12-18T07:18:34;-6.70;99.90
13970;DHT22;7057;49.984;8.404;2022-12-18T07:21:05;-6.70;99.90
13970;DHT22;7057;49.984;8.404;2022-12-18T07:23:34;-6.60;99.90
13970;DHT22;7057;49.984;8.404;2022-12-18T07:26:02;-6.80;99.90
13970;DHT22;7057;49.984;8.404;2022-12-18T07:28:31;-6.70;99.90
13970;DHT22;7057;49.984;8.404;2022-12-18T07:30:58;-6.70;99.90
13970;DHT22;7057;49.984;8.404;2022-12-18T07:33:25;-6.50;99.90
13970;DHT22;7057;49.984;8.404;2022-12-18T07:35:52;-6.50;99.90
13970;DHT22;7057;49.984;8.404;2022-12-18T07:38:20;-6.40;99.90
13970;DHT22;7057;49.984;8.404;2022-12-18T07:40:49;-6.50;99.90
13970;DHT22;7057;49.984;8.404;2022-12-18T07:43:16;-6.60;99.90
13970;DHT22;7057;49.984;8.404;2022-12-18T07:45:44;-6.50;99.90
13970;DHT22;7057;49.984;8.404;2022-12-18T07:48:11;-6.40;99.90
13970;DHT22;7057;49.984;8.404;2022-12-18T07:50:38;-6.40;99.90
13970;DHT22;7057;49.984;8.404;2022-12-18T07:53:05;-6.60;99.90
13970;DHT22;7057;49.984;8.404;2022-12-18T07:55:33;-6.60;99.90
13970;DHT22;7057;49.984;8.404;2022-12-18T07:58:02;-6.60;99.90
13970;DHT22;7057;49.984;8.404;2022-12-18T08:00:30;-6.50;99.90
13970;DHT22;7057;49.984;8.404;2022-12-18T08:02:58;-6.60;99.90
13970;DHT22;7057;49.984;8.404;2022-12-18T08:05:25;-6.60;99.90
13970;DHT22;7057;49.984;8.404;2022-12-18T08:07:53;-6.60;99.90
13970;DHT22;7057;49.984;8.404;2022-12-18T08:10:20;-6.90;99.90
13970;DHT22;7057;49.984;8.404;2022-12-18T08:12:49;-6.80;99.90
13970;DHT22;7057;49.984;8.404;2022-12-18T08:15:18;-6.70;99.90
13970;DHT22;7057;49.984;8.404;2022-12-18T08:17:45;-6.50;99.90
13970;DHT22;7057;49.984;8.404;2022-12-18T08:20:12;-6.40;99.90
13970;DHT22;7057;49.984;8.404;2022-12-18T08:22:41;-6.40;99.90
13970;DHT22;7057;49.984;8.404;2022-12-18T08:25:09;-6.40;99.90
13970;DHT22;7057;49.984;8.404;2022-12-18T08:27:36;-6.40;99.90
13970;DHT22;7057;49.984;8.404;2022-12-18T08:30:04;-6.40;99.90
13970;DHT22;7057;49.984;8.404;2022-12-18T08:32:33;-6.40;99.90
13970;DHT22;7057;49.984;8.404;2022-12-18T08:35:00;-6.30;99.90
13970;DHT22;7057;49.984;8.404;2022-12-18T08:37:27;-6.20;99.90
13970;DHT22;7057;49.984;8.404;2022-12-18T08:39:54;-6.10;99.90
13970;DHT22;7057;49.984;8.404;2022-12-18T08:42:22;-6.10;99.90
13970;DHT22;7057;49.984;8.404;2022-12-18T08:45:07;-6.00;99.90
13970;DHT22;7057;49.984;8.404;2022-12-18T08:47:36;-6.00;99.90
13970;DHT22;7057;49.984;8.404;2022-12-18T08:50:04;-5.90;99.90
13970;DHT22;7057;49.984;8.404;2022-12-18T08:52:32;-6.10;99.90
13970;DHT22;7057;49.984;8.404;2022-12-18T08:54:59;-6.20;99.90
13970;DHT22;7057;49.984;8.404;2022-12-18T08:57:26;-6.20;99.90
13970;DHT22;7057;49.984;8.404;2022-12-18T08:59:53;-6.00;99.90
13970;DHT22;7057;49.984;8.404;2022-12-18T09:02:21;-5.90;99.90
13970;DHT22;7057;49.984;8.404;2022-12-18T09:04:49;-6.00;99.90
13970;DHT22;7057;49.984;8.404;2022-12-18T09:07:16;-5.90;99.90
13970;DHT22;7057;49.984;8.404;2022-12-18T09:09:44;-5.80;99.90
13970;DHT22;7057;49.984;8.404;2022-12-18T09:12:11;-5.70;99.90
13970;DHT22;7057;49.984;8.404;2022-12-18T09:14:38;-5.50;99.90
13970;DHT22;7057;49.984;8.404;2022-12-18T09:17:05;-5.40;99.90
13970;DHT22;7057;49.984;8.404;2022-12-18T09:19:33;-5.30;99.90
13970;DHT22;7057;49.984;8.404;2022-12-18T09:22:01;-5.20;99.90
13970;DHT22;7057;49.984;8.404;2022-12-18T09:24:28;-5.10;99.90
13970;DHT22;7057;49.984;8.404;2022-12-18T09:26:56;-5.10;99.90
13970;DHT22;7057;49.984;8.404;2022-12-18T09:29:23;-5.20;99.90
13970;DHT22;7057;49.984;8.404;2022-12-18T09:31:50;-5.20;99.90
13970;DHT22;7057;49.984;8.404;2022-12-18T09:34:17;-5.10;99.90
13970;DHT22;7057;49.984;8.404;2022-12-18T09:36:46;-5.10;99.90
13970;DHT22;7057;49.984;8.404;2022-12-18T09:39:15;-5.00;99.90
13970;DHT22;7057;49.984;8.404;2022-12-18T09:41:45;-4.80;99.90
13970;DHT22;7057;49.984;8.404;2022-12-18T09:44:23;-4.70;99.90
13970;DHT22;7057;49.984;8.404;2022-12-18T09:46:57;-4.80;99.90
13970;DHT22;7057;49.984;8.404;2022-12-18T09:49:28;-4.80;99.90
13970;DHT22;7057;49.984;8.404;2022-12-18T09:51:59;-4.60;99.90
13970;DHT22;7057;49.984;8.404;2022-12-18T09:54:35;-4.50;99.90
13970;DHT22;7057;49.984;8.404;2022-12-18T09:57:03;-4.60;99.90
13970;DHT22;7057;49.984;8.404;2022-12-18T09:59:33;-4.60;99.90
13970;DHT22;7057;49.984;8.404;2022-12-18T10:02:14;-4.70;99.90
13970;DHT22;7057;49.984;8.404;2022-12-18T10:04:41;-4.60;99.90
13970;DHT22;7057;49.984;8.404;2022-12-18T10:07:13;-4.40;99.90
13970;DHT22;7057;49.984;8.404;2022-12-18T10:09:52;-4.40;99.90
13970;DHT22;7057;49.984;8.404;2022-12-18T10:12:28;-4.40;99.90
13970;DHT22;7057;49.984;8.404;2022-12-18T10:15:02;-4.40;99.90
13970;DHT22;7057;49.984;8.404;2022-12-18T10:17:36;-4.50;99.90
13970;DHT22;7057;49.984;8.404;2022-12-18T10:20:12;-4.40;99.90
13970;DHT22;7057;49.984;8.404;2022-12-18T10:22:48;-4.50;99.90
13970;DHT22;7057;49.984;8.404;2022-12-18T10:25:22;-4.40;99.90
13970;DHT22;7057;49.984;8.404;2022-12-18T10:27:53;-4.40;99.90
13970;DHT22;7057;49.984;8.404;2022-12-18T10:30:23;-4.30;99.90
13970;DHT22;7057;49.984;8.404;2022-12-18T10:32:51;-4.30;99.90
13970;DHT22;7057;49.984;8.404;2022-12-18T10:35:20;-4.40;99.90
13970;DHT22;7057;49.984;8.404;2022-12-18T10:38:07;-4.20;99.90
13970;DHT22;7057;49.984;8.404;2022-12-18T10:40:50;-4.10;99.90
13970;DHT22;7057;49.984;8.404;2022-12-18T10:43:23;-4.00;99.90
13970;DHT22;7057;49.984;8.404;2022-12-18T10:46:03;-4.00;99.90
13970;DHT22;7057;49.984;8.404;2022-12-18T10:48:33;-4.10;99.90
13970;DHT22;7057;49.984;8.404;2022-12-18T10:51:00;-4.20;99.90
13970;DHT22;7057;49.984;8.404;2022-12-18T10:53:29;-4.10;99.90
13970;DHT22;7057;49.984;8.404;2022-12-18T10:55:59;-4.10;99.90
13970;DHT22;7057;49.984;8.404;2022-12-18T10:58:29;-4.20;99.90
13970;DHT22;7057;49.984;8.404;2022-12-18T11:01:09;-4.20;99.90
13970;DHT22;7057;49.984;8.404;2022-12-18T11:03:38;-3.90;99.90
13970;DHT22;7057;49.984;8.404;2022-12-18T11:06:08;-3.70;99.90
13970;DHT22;7057;49.984;8.404;2022-12-18T11:08:36;-3.60;99.90
13970;DHT22;7057;49.984;8.404;2022-12-18T11:11:14;-3.60;99.90
13970;DHT22;7057;49.984;8.404;2022-12-18T11:13:51;-3.70;99.90
13970;DHT22;7057;49.984;8.404;2022-12-18T11:16:21;-3.80;99.90
13970;DHT22;7057;49.984;8.404;2022-12-18T11:18:49;-3.80;99.90
13970;DHT22;7057;49.984;8.404;2022-12-18T11:21:17;-3.90;99.90
13970;DHT22;7057;49.984;8.404;2022-12-18T11:23:47;-3.90;99.90
13970;DHT22;7057;49.984;8.404;2022-12-18T11:26:17;-3.90;99.90
13970;DHT22;7057;49.984;8.404;2022-12-18T11:28:49;-3.70;99.90
13970;DHT22;7057;49.984;8.404;2022-12-18T11:31:22;-3.80;99.90
13970;DHT22;7057;49.984;8.404;2022-12-18T11:33:54;-3.70;99.90
13970;DHT22;7057;49.984;8.404;2022-12-18T11:36:23;-3.50;99.90
13970;DHT22;7057;49.984;8.404;2022-12-18T11:38:54;-3.40;99.90
13970;DHT22;7057;49.984;8.404;2022-12-18T11:41:27;-3.50;99.90
13970;DHT22;7057;49.984;8.404;2022-12-18T11:44:13;-3.50;99.90
13970;DHT22;7057;49.984;8.404;2022-12-18T11:46:46;-3.30;99.90
13970;DHT22;7057;49.984;8.404;2022-12-18T11:49:18;-3.00;99.90
13970;DHT22;7057;49.984;8.404;2022-12-18T11:51:51;-2.90;99.90
13970;DHT22;7057;49.984;8.404;2022-12-18T11:54:21;-2.90;99.90
13970;DHT22;7057;49.984;8.404;2022-12-18T11:56:53;-3.20;99.90
13970;DHT22;7057;49.984;8.404;2022-12-18T11:59:31;-3.10;99.90
13970;DHT22;7057;49.984;8.404;2022-12-18T12:02:11;-3.00;99.90
13970;DHT22;7057;49.984;8.404;2022-12-18T12:04:50;-2.80;99.90
13970;DHT22;7057;49.984;8.404;2022-12-18T12:07:36;-2.80;99.90
13970;DHT22;7057;49.984;8.404;2022-12-18T12:10:18;-1.70;99.90
13970;DHT22;7057;49.984;8.404;2022-12-18T12:13:03;-2.50;99.90
13970;DHT22;7057;49.984;8.404;2022-12-18T12:15:41;-2.50;99.90
13970;DHT22;7057;49.984;8.404;2022-12-18T12:18:22;-2.20;99.90
13970;DHT22;7057;49.984;8.404;2022-12-18T12:20:58;-2.20;99.90
13970;DHT22;7057;49.984;8.404;2022-12-18T12:23:36;-2.20;99.90
13970;DHT22;7057;49.984;8.404;2022-12-18T12:26:08;-2.00;99.90
13970;DHT22;7057;49.984;8.404;2022-12-18T12:28:52;-1.90;99.90
13970;DHT22;7057;49.984;8.404;2022-12-18T12:31:28;-1.80;99.90
13970;DHT22;7057;49.984;8.404;2022-12-18T12:34:08;-2.00;99.90
13970;DHT22;7057;49.984;8.404;2022-12-18T12:36:45;-2.10;99.90
13970;DHT22;7057;49.984;8.404;2022-12-18T12:39:19;-2.20;99.90
13970;DHT22;7057;49.984;8.404;2022-12-18T12:41:48;-2.10;99.90
13970;DHT22;7057;49.984;8.404;2022-12-18T12:44:38;-2.50;99.90
13970;DHT22;7057;49.984;8.404;2022-12-18T12:47:11;-2.50;99.90
13970;DHT22;7057;49.984;8.404;2022-12-18T12:49:40;-2.30;99.90
13970;DHT22;7057;49.984;8.404;2022-12-18T12:52:16;-2.20;99.90
13970;DHT22;7057;49.984;8.404;2022-12-18T12:54:45;-2.10;99.90
13970;DHT22;7057;49.984;8.404;2022-12-18T12:57:17;-2.00;99.90
13970;DHT22;7057;49.984;8.404;2022-12-18T12:59:51;-2.00;99.90
13970;DHT22;7057;49.984;8.404;2022-12-18T13:02:24;-2.20;99.90
13970;DHT22;7057;49.984;8.404;2022-12-18T13:04:59;-2.60;99.90
13970;DHT22;7057;49.984;8.404;2022-12-18T13:07:32;-3.00;99.90
13970;DHT22;7057;49.984;8.404;2022-12-18T13:10:26;-3.20;99.90
13970;DHT22;7057;49.984;8.404;2022-12-18T13:13:01;-3.10;99.90
13970;DHT22;7057;49.984;8.404;2022-12-18T13:15:32;-3.10;99.90
13970;DHT22;7057;49.984;8.404;2022-12-18T13:18:05;-3.20;99.90
13970;DHT22;7057;49.984;8.404;2022-12-18T13:20:38;-3.20;99.90
13970;DHT22;7057;49.984;8.404;2022-12-18T13:23:25;-3.20;99.90
13970;DHT22;7057;49.984;8.404;2022-12-18T13:25:54;-3.30;99.90
13970;DHT22;7057;49.984;8.404;2022-12-18T13:28:23;-3.30;99.90
13970;DHT22;7057;49.984;8.404;2022-12-18T13:30:54;-3.10;99.90
13970;DHT22;7057;49.984;8.404;2022-12-18T13:33:42;-3.20;99.90
13970;DHT22;7057;49.984;8.404;2022-12-18T13:36:15;-3.30;99.90
13970;DHT22;7057;49.984;8.404;2022-12-18T13:38:43;-3.20;99.90
13970;DHT22;7057;49.984;8.404;2022-12-18T13:41:24;-3.10;99.90
13970;DHT22;7057;49.984;8.404;2022-12-18T13:43:53;-3.00;99.90
13970;DHT22;7057;49.984;8.404;2022-12-18T13:46:24;-3.10;99.90
13970;DHT22;7057;49.984;8.404;2022-12-18T13:48:56;-3.30;99.90
13970;DHT22;7057;49.984;8.404;2022-12-18T13:51:25;-3.30;99.90
13970;DHT22;7057;49.984;8.404;2022-12-18T13:53:55;-3.20;99.90
13970;DHT22;7057;49.984;8.404;2022-12-18T13:56:25;-3.20;99.90
13970;DHT22;7057;49.984;8.404;2022-12-18T13:59:21;-3.10;99.90
13970;DHT22;7057;49.984;8.404;2022-12-18T14:01:52;-3.00;99.90
13970;DHT22;7057;49.984;8.404;2022-12-18T14:04:23;-3.10;99.90
13970;DHT22;7057;49.984;8.404;2022-12-18T14:06:53;-3.20;99.90
13970;DHT22;7057;49.984;8.404;2022-12-18T14:09:25;-3.10;99.90
13970;DHT22;7057;49.984;8.404;2022-12-18T14:11:53;-3.10;99.90
13970;DHT22;7057;49.984;8.404;2022-12-18T14:14:44;-3.10;99.90
13970;DHT22;7057;49.984;8.404;2022-12-18T14:17:14;-3.10;99.90
13970;DHT22;7057;49.984;8.404;2022-12-18T14:19:44;-3.10;99.90
13970;DHT22;7057;49.984;8.404;2022-12-18T14:22:15;-3.10;99.90
13970;DHT22;7057;49.984;8.404;2022-12-18T14:24:43;-3.20;99.90
13970;DHT22;7057;49.984;8.404;2022-12-18T14:27:21;-3.20;99.90
13970;DHT22;7057;49.984;8.404;2022-12-18T14:29:49;-3.20;99.90
13970;DHT22;7057;49.984;8.404;2022-12-18T14:32:19;-3.00;99.90
13970;DHT22;7057;49.984;8.404;2022-12-18T14:34:48;-3.00;99.90
13970;DHT22;7057;49.984;8.404;2022-12-18T14:37:17;-3.00;99.90
13970;DHT22;7057;49.984;8.404;2022-12-18T14:39:54;-3.00;99.90
13970;DHT22;7057;49.984;8.404;2022-12-18T14:42:22;-2.90;99.90
13970;DHT22;7057;49.984;8.404;2022-12-18T14:48:00;-2.90;99.90
13970;DHT22;7057;49.984;8.404;2022-12-18T14:50:27;-1.70;99.90
13970;DHT22;7057;49.984;8.404;2022-12-18T14:52:54;-2.90;99.90
13970;DHT22;7057;49.984;8.404;2022-12-18T14:55:22;-2.90;99.90
13970;DHT22;7057;49.984;8.404;2022-12-18T14:57:51;-3.00;99.90
13970;DHT22;7057;49.984;8.404;2022-12-18T15:00:22;-3.00;99.90
13970;DHT22;7057;49.984;8.404;2022-12-18T15:02:52;-3.00;99.90
13970;DHT22;7057;49.984;8.404;2022-12-18T15:05:25;-3.00;99.90
13970;DHT22;7057;49.984;8.404;2022-12-18T15:07:56;-3.00;99.90
13970;DHT22;7057;49.984;8.404;2022-12-18T15:10:24;-3.10;99.90
13970;DHT22;7057;49.984;8.404;2022-12-18T15:13:07;-3.10;99.90
13970;DHT22;7057;49.984;8.404;2022-12-18T15:15:48;-3.10;99.90
13970;DHT22;7057;49.984;8.404;2022-12-18T15:18:18;-3.10;99.90
13970;DHT22;7057;49.984;8.404;2022-12-18T15:20:49;-3.20;99.90
13970;DHT22;7057;49.984;8.404;2022-12-18T15:23:18;-3.10;99.90
13970;DHT22;7057;49.984;8.404;2022-12-18T15:25:47;-3.10;99.90
13970;DHT22;7057;49.984;8.404;2022-12-18T15:28:21;-3.10;99.90
13970;DHT22;7057;49.984;8.404;2022-12-18T15:31:00;-3.20;99.90
13970;DHT22;7057;49.984;8.404;2022-12-18T15:33:30;-3.20;99.90
13970;DHT22;7057;49.984;8.404;2022-12-18T15:36:01;-3.20;99.90
13970;DHT22;7057;49.984;8.404;2022-12-18T15:38:29;-3.20;99.90
13970;DHT22;7057;49.984;8.404;2022-12-18T15:40:56;-3.20;99.90
13970;DHT22;7057;49.984;8.404;2022-12-18T15:43:24;-2.70;99.90
13970;DHT22;7057;49.984;8.404;2022-12-18T15:46:01;-2.30;99.90
13970;DHT22;7057;49.984;8.404;2022-12-18T15:48:29;-2.10;99.90
13970;DHT22;7057;49.984;8.404;2022-12-18T15:50:58;-2.00;99.90
13970;DHT22;7057;49.984;8.404;2022-12-18T15:53:29;-1.90;99.90
13970;DHT22;7057;49.984;8.404;2022-12-18T15:55:57;-2.00;99.90
13970;DHT22;7057;49.984;8.404;2022-12-18T15:58:43;-2.10;99.90
13970;DHT22;7057;49.984;8.404;2022-12-18T16:01:10;-2.00;99.90
13970;DHT22;7057;49.984;8.404;2022-12-18T16:03:38;-1.90;99.90
13970;DHT22;7057;49.984;8.404;2022-12-18T16:06:08;-1.80;99.90
13970;DHT22;7057;49.984;8.404;2022-12-18T16:08:36;-1.80;99.90
13970;DHT22;7057;49.984;8.404;2022-12-18T16:11:03;-1.70;99.90